Time;durP1;ratioP1;P1;durP2;ratioP2;P2;SDS_P1;SDS_P2;PMS_P1;PMS_P2;Temp;Humidity;BMP_temperature;BMP_pressure;BME280_temperature;BME280_humidity;BME280_pressure;Samples;Min_cycle;Max_cycle;Signal;HPM_P1;HPM_P2
2024/02/04 00:00:50;;;;;;;3.58;1.85;;;;;;;;;;4962905;28;20397;-66
2024/02/04 00:03:16;;;;;;;2.50;1.83;;;;;;;;;;4964394;28;20038;-65
2024/02/04 00:05:42;;;;;;;2.85;1.85;;;;;;;;;;4965953;28;20039;-65
2024/02/04 00:08:09;;;;;;;2.42;1.90;;;;;;;;;;4968598;28;20058;-65
2024/02/04 00:10:35;;;;;;;2.22;1.75;;;;;;;;;;4965173;28;20047;-65
2024/02/04 00:13:01;;;;;;;3.95;2.00;;;;;;;;;;4966228;28;20042;-65
2024/02/04 00:15:27;;;;;;;2.53;1.60;;;;;;;;;;4965492;28;20034;-65
2024/02/04 00:17:53;;;;;;;2.95;1.55;;;;;;;;;;4962604;28;20387;-66
2024/02/04 00:20:20;;;;;;;2.17;1.63;;;;;;;;;;4968821;28;20419;-65
2024/02/04 00:22:46;;;;;;;2.60;1.75;;;;;;;;;;4968029;28;20066;-66
2024/02/04 00:25:13;;;;;;;3.08;1.63;;;;;;;;;;4950202;28;20042;-65
2024/02/04 00:27:39;;;;;;;2.95;1.90;;;;;;;;;;4975740;28;20046;-64
2024/02/04 00:30:06;;;;;;;2.42;1.60;;;;;;;;;;4968427;28;20042;-64
2024/02/04 00:32:33;;;;;;;1.67;1.40;;;;;;;;;;4969824;28;20598;-65
2024/02/04 00:34:59;;;;;;;2.35;1.42;;;;;;;;;;4968089;28;20034;-64
2024/02/04 00:37:25;;;;;;;3.72;2.00;;;;;;;;;;4968318;28;20051;-65
2024/02/04 00:39:52;;;;;;;2.65;1.45;;;;;;;;;;4966084;28;20042;-64
2024/02/04 00:42:18;;;;;;;2.40;1.70;;;;;;;;;;4960478;28;20051;-65
2024/02/04 00:44:44;;;;;;;2.10;1.23;;;;;;;;;;4966684;28;20042;-64
2024/02/04 00:47:10;;;;;;;1.85;1.33;;;;;;;;;;4968035;28;20134;-64
2024/02/04 00:49:36;;;;;;;2.10;1.48;;;;;;;;;;4963439;28;20375;-63
2024/02/04 00:52:02;;;;;;;2.67;1.55;;;;;;;;;;4962101;28;20035;-64
2024/02/04 00:54:29;;;;;;;2.30;1.45;;;;;;;;;;4967608;28;20486;-64
2024/02/04 00:56:55;;;;;;;1.88;1.35;;;;;;;;;;4968596;28;20046;-64
2024/02/04 00:59:21;;;;;;;4.00;1.45;;;;;;;;;;4969229;28;20034;-64
2024/02/04 01:01:47;;;;;;;3.13;1.60;;;;;;;;;;4968359;28;20039;-64
2024/02/04 01:04:13;;;;;;;2.10;1.45;;;;;;;;;;4969120;28;20422;-63
2024/02/04 01:06:39;;;;;;;3.40;1.70;;;;;;;;;;4968607;28;20039;-64
2024/02/04 01:09:05;;;;;;;2.22;1.48;;;;;;;;;;4969063;28;20517;-64
2024/02/04 01:11:32;;;;;;;1.83;1.25;;;;;;;;;;4967912;28;20081;-64
2024/02/04 01:13:58;;;;;;;2.13;1.40;;;;;;;;;;4965746;28;20034;-64
2024/02/04 01:16:24;;;;;;;2.20;1.40;;;;;;;;;;4967333;28;20379;-64
2024/02/04 01:18:50;;;;;;;3.13;1.33;;;;;;;;;;4965060;28;20050;-64
2024/02/04 01:21:16;;;;;;;3.08;1.48;;;;;;;;;;4984438;23;20498;-62
2024/02/04 01:23:42;;;;;;;2.28;1.48;;;;;;;;;;4968629;28;20047;-63
2024/02/04 01:26:08;;;;;;;1.50;1.27;;;;;;;;;;4968589;28;20490;-61
2024/02/04 01:28:35;;;;;;;2.25;1.35;;;;;;;;;;4970825;28;20035;-62
2024/02/04 01:31:01;;;;;;;2.17;1.63;;;;;;;;;;4968855;28;20039;-62
2024/02/04 01:33:27;;;;;;;2.00;1.40;;;;;;;;;;4962199;28;20398;-62
2024/02/04 01:35:53;;;;;;;1.67;1.13;;;;;;;;;;4969757;28;20042;-62
2024/02/04 01:38:20;;;;;;;1.95;1.38;;;;;;;;;;4957988;28;20043;-62
2024/02/04 01:40:46;;;;;;;1.33;1.20;;;;;;;;;;4961619;28;20035;-60
2024/02/04 01:43:12;;;;;;;2.78;1.48;;;;;;;;;;4959814;28;20034;-60
2024/02/04 01:45:38;;;;;;;1.95;1.48;;;;;;;;;;4959126;28;20039;-60
2024/02/04 01:48:05;;;;;;;3.17;1.55;;;;;;;;;;4972023;28;20049;-60
2024/02/04 01:50:31;;;;;;;1.85;1.20;;;;;;;;;;4968052;28;20051;-60
2024/02/04 01:52:58;;;;;;;1.95;1.27;;;;;;;;;;4962442;28;20039;-62
2024/02/04 01:55:24;;;;;;;1.55;1.20;;;;;;;;;;4976568;28;20414;-61
2024/02/04 01:57:50;;;;;;;1.73;1.25;;;;;;;;;;4965931;28;20042;-62
2024/02/04 02:00:18;;;;;;;2.33;1.35;;;;;;;;;;4970973;28;20035;-61
2024/02/04 02:02:46;;;;;;;3.42;1.50;;;;;;;;;;4958611;28;20045;-63
2024/02/04 02:05:12;;;;;;;2.45;1.25;;;;;;;;;;4960704;28;20043;-62
2024/02/04 02:07:40;;;;;;;1.30;1.17;;;;;;;;;;4958532;28;20055;-62
2024/02/04 02:10:10;;;;;;;2.17;1.15;;;;;;;;;;4963467;28;20499;-61
2024/02/04 02:12:49;;;;;;;1.55;1.10;;;;;;;;;;4960805;28;20058;-63
2024/02/04 02:15:30;;;;;;;1.50;0.95;;;;;;;;;;4973287;28;20039;-62
2024/02/04 02:18:35;;;;;;;1.88;1.10;;;;;;;;;;4962367;28;20077;-62
2024/02/04 02:21:03;;;;;;;1.77;1.20;;;;;;;;;;4965213;28;20039;-62
2024/02/04 02:23:34;;;;;;;2.67;1.10;;;;;;;;;;4970235;28;20046;-62
2024/02/04 02:26:00;;;;;;;2.13;1.30;;;;;;;;;;4970806;28;20034;-62
2024/02/04 02:28:26;;;;;;;1.52;0.93;;;;;;;;;;4964659;28;20042;-61
2024/02/04 02:30:52;;;;;;;2.78;1.00;;;;;;;;;;4965452;28;20031;-61
2024/02/04 02:33:19;;;;;;;1.83;1.27;;;;;;;;;;4962294;28;20054;-61
2024/02/04 02:35:50;;;;;;;2.20;1.38;;;;;;;;;;4967579;28;20054;-62
2024/02/04 02:38:34;;;;;;;2.22;1.25;;;;;;;;;;4968145;28;20042;-62
2024/02/04 02:41:06;;;;;;;1.70;1.10;;;;;;;;;;4959320;28;20039;-61
2024/02/04 02:43:33;;;;;;;2.47;1.20;;;;;;;;;;4959374;28;20050;-61
2024/02/04 02:46:01;;;;;;;2.35;1.10;;;;;;;;;;4966074;28;20035;-62
2024/02/04 02:48:27;;;;;;;1.52;1.15;;;;;;;;;;4971858;28;20120;-62
2024/02/04 02:50:54;;;;;;;3.35;1.48;;;;;;;;;;4971213;28;20055;-62
2024/02/04 02:53:20;;;;;;;3.60;1.33;;;;;;;;;;4971884;28;20039;-62
2024/02/04 02:55:46;;;;;;;3.30;1.58;;;;;;;;;;4963474;28;20039;-63
2024/02/04 02:58:14;;;;;;;2.00;1.50;;;;;;;;;;4968150;28;20058;-61
2024/02/04 03:00:40;;;;;;;3.13;1.70;;;;;;;;;;4964490;28;20039;-62
2024/02/04 03:03:06;;;;;;;2.67;1.63;;;;;;;;;;4969292;28;20049;-61
2024/02/04 03:05:34;;;;;;;2.15;1.42;;;;;;;;;;4961031;28;20121;-62
2024/02/04 03:08:00;;;;;;;4.53;1.60;;;;;;;;;;4964664;28;20364;-64
2024/02/04 03:10:26;;;;;;;3.00;1.60;;;;;;;;;;4965547;28;20039;-61
2024/02/04 03:12:52;;;;;;;2.70;1.48;;;;;;;;;;4962907;28;20039;-62
2024/02/04 03:15:19;;;;;;;2.63;1.70;;;;;;;;;;4964250;28;20035;-62
2024/02/04 03:17:45;;;;;;;2.47;1.60;;;;;;;;;;4966755;28;20034;-62
2024/02/04 03:20:11;;;;;;;2.22;1.30;;;;;;;;;;4980736;28;20047;-61
2024/02/04 03:22:37;;;;;;;2.40;1.52;;;;;;;;;;4970076;28;20042;-61
2024/02/04 03:25:04;;;;;;;2.25;1.40;;;;;;;;;;4971106;28;20041;-62
2024/02/04 03:27:30;;;;;;;2.92;1.30;;;;;;;;;;4960401;28;20051;-61
2024/02/04 03:29:56;;;;;;;1.98;1.40;;;;;;;;;;4967443;28;20039;-62
2024/02/04 03:32:23;;;;;;;2.03;1.23;;;;;;;;;;4962191;28;20054;-62
2024/02/04 03:34:49;;;;;;;2.47;1.20;;;;;;;;;;4962034;28;20506;-62
2024/02/04 03:37:15;;;;;;;3.53;1.48;;;;;;;;;;4966888;28;20035;-62
2024/02/04 03:39:42;;;;;;;3.22;1.42;;;;;;;;;;4960973;28;20035;-61
2024/02/04 03:42:08;;;;;;;2.55;1.30;;;;;;;;;;4955387;28;20054;-61
2024/02/04 03:44:34;;;;;;;1.80;1.25;;;;;;;;;;4961793;28;20501;-62
2024/02/04 03:47:02;;;;;;;2.53;1.25;;;;;;;;;;4966921;28;20417;-61
2024/02/04 03:49:29;;;;;;;2.33;1.13;;;;;;;;;;4969858;28;20039;-62
2024/02/04 03:51:55;;;;;;;3.03;1.95;;;;;;;;;;4964315;28;20031;-61
2024/02/04 03:54:21;;;;;;;2.60;1.30;;;;;;;;;;4964544;28;21411;-62
2024/02/04 03:56:47;;;;;;;3.95;1.30;;;;;;;;;;4956729;28;20034;-62
2024/02/04 03:59:13;;;;;;;2.85;1.70;;;;;;;;;;4970592;28;20050;-61
2024/02/04 04:01:39;;;;;;;1.60;1.20;;;;;;;;;;4969291;28;20038;-61
2024/02/04 04:04:05;;;;;;;1.88;1.17;;;;;;;;;;4963171;28;20035;-61
2024/02/04 04:06:31;;;;;;;2.63;1.48;;;;;;;;;;4961507;28;20038;-61
2024/02/04 04:08:59;;;;;;;2.38;1.58;;;;;;;;;;4963676;28;20057;-61
2024/02/04 04:11:25;;;;;;;3.00;1.58;;;;;;;;;;4960233;28;20039;-62
2024/02/04 04:13:51;;;;;;;2.72;1.48;;;;;;;;;;4961823;28;20054;-61
2024/02/04 04:16:20;;;;;;;2.72;1.58;;;;;;;;;;4970528;28;20408;-62
2024/02/04 04:18:46;;;;;;;1.95;1.25;;;;;;;;;;4966849;28;20051;-61
2024/02/04 04:21:12;;;;;;;2.33;1.40;;;;;;;;;;4959699;28;20062;-61
2024/02/04 04:23:38;;;;;;;2.78;1.65;;;;;;;;;;4955602;28;20034;-60
2024/02/04 04:26:05;;;;;;;1.73;1.10;;;;;;;;;;4960376;28;20039;-62
2024/02/04 04:28:31;;;;;;;1.73;1.30;;;;;;;;;;4959191;28;20051;-62
2024/02/04 04:30:57;;;;;;;1.80;1.23;;;;;;;;;;4953888;28;20049;-63
2024/02/04 04:33:23;;;;;;;1.35;1.15;;;;;;;;;;4956746;28;20118;-62
2024/02/04 04:35:49;;;;;;;1.95;1.13;;;;;;;;;;4953303;28;20450;-62
2024/02/04 04:38:16;;;;;;;1.90;1.20;;;;;;;;;;4955185;28;20490;-62
2024/02/04 04:40:42;;;;;;;2.22;1.40;;;;;;;;;;4953853;28;20059;-63
2024/02/04 04:43:08;;;;;;;1.80;1.35;;;;;;;;;;4958475;28;20146;-62
2024/02/04 04:45:34;;;;;;;1.70;1.30;;;;;;;;;;4960770;28;20138;-62
2024/02/04 04:48:00;;;;;;;1.48;1.00;;;;;;;;;;4957223;28;20038;-62
2024/02/04 04:50:27;;;;;;;1.98;1.20;;;;;;;;;;4960151;28;20039;-62
2024/02/04 04:52:53;;;;;;;2.65;1.30;;;;;;;;;;4959868;28;20564;-62
2024/02/04 04:55:19;;;;;;;1.42;1.10;;;;;;;;;;4955183;28;20051;-62
2024/02/04 04:57:45;;;;;;;2.85;1.20;;;;;;;;;;4965735;28;20042;-62
2024/02/04 05:00:13;;;;;;;1.83;0.82;;;;;;;;;;4959381;28;20038;-63
2024/02/04 05:02:43;;;;;;;2.65;1.15;;;;;;;;;;4962999;28;20050;-62
2024/02/04 05:05:12;;;;;;;1.38;1.00;;;;;;;;;;4963466;28;20061;-61
2024/02/04 05:07:39;;;;;;;1.30;1.00;;;;;;;;;;4962320;28;20051;-61
2024/02/04 05:10:06;;;;;;;1.05;0.90;;;;;;;;;;4961354;28;20050;-62
2024/02/04 05:12:33;;;;;;;1.35;0.93;;;;;;;;;;4968469;28;20033;-61
2024/02/04 05:14:59;;;;;;;1.27;0.80;;;;;;;;;;4966120;28;20046;-61
2024/02/04 05:17:26;;;;;;;2.58;1.20;;;;;;;;;;4970380;28;20047;-61
2024/02/04 05:19:52;;;;;;;1.75;1.15;;;;;;;;;;4969923;28;20049;-61
2024/02/04 05:22:18;;;;;;;1.63;1.10;;;;;;;;;;4965212;28;20058;-61
2024/02/04 05:24:44;;;;;;;3.05;1.00;;;;;;;;;;4965511;28;20031;-60
2024/02/04 05:27:10;;;;;;;2.08;1.23;;;;;;;;;;4962322;28;20035;-61
2024/02/04 05:29:36;;;;;;;5.00;1.48;;;;;;;;;;4961263;28;20494;-61
2024/02/04 05:32:03;;;;;;;3.38;1.17;;;;;;;;;;4962704;28;20035;-60
2024/02/04 05:34:31;;;;;;;3.72;1.40;;;;;;;;;;4960584;28;20050;-62
2024/02/04 05:36:57;;;;;;;2.05;1.33;;;;;;;;;;4956642;28;20054;-61
2024/02/04 05:39:24;;;;;;;2.60;1.25;;;;;;;;;;4959268;28;20118;-61
2024/02/04 05:41:50;;;;;;;2.72;1.17;;;;;;;;;;4960875;28;20133;-61
2024/02/04 05:44:16;;;;;;;1.50;1.10;;;;;;;;;;4956185;28;20043;-61
2024/02/04 05:46:42;;;;;;;2.35;1.45;;;;;;;;;;4957860;28;20043;-61
2024/02/04 05:49:08;;;;;;;2.58;1.30;;;;;;;;;;4966397;28;20047;-59
2024/02/04 05:51:39;;;;;;;2.17;1.30;;;;;;;;;;4957697;28;20506;-64
2024/02/04 05:54:05;;;;;;;2.38;1.52;;;;;;;;;;4956241;28;20047;-63
2024/02/04 05:56:32;;;;;;;3.47;1.20;;;;;;;;;;4964485;28;20055;-61
2024/02/04 05:58:58;;;;;;;2.53;1.45;;;;;;;;;;4962025;28;20031;-63
2024/02/04 06:01:24;;;;;;;2.53;1.50;;;;;;;;;;4982768;28;20057;-62
2024/02/04 06:03:50;;;;;;;2.08;1.30;;;;;;;;;;4955976;28;20090;-61
2024/02/04 06:06:19;;;;;;;2.08;1.23;;;;;;;;;;4961451;28;20035;-61
2024/02/04 06:08:46;;;;;;;2.80;1.52;;;;;;;;;;4963244;28;20124;-59
2024/02/04 06:11:13;;;;;;;2.67;1.60;;;;;;;;;;4959524;28;20050;-62
2024/02/04 06:13:41;;;;;;;2.42;1.40;;;;;;;;;;4957508;28;20054;-61
2024/02/04 06:16:08;;;;;;;1.98;1.13;;;;;;;;;;4960406;28;20047;-63
2024/02/04 06:18:37;;;;;;;2.72;1.38;;;;;;;;;;4961549;28;20545;-62
2024/02/04 06:21:04;;;;;;;2.10;1.42;;;;;;;;;;4949985;28;20059;-62
2024/02/04 06:23:30;;;;;;;5.22;1.73;;;;;;;;;;4956096;28;20055;-62
2024/02/04 06:25:56;;;;;;;2.65;1.60;;;;;;;;;;4957495;28;20058;-62
2024/02/04 06:28:23;;;;;;;2.05;1.20;;;;;;;;;;4959320;28;20035;-62
2024/02/04 06:30:49;;;;;;;2.47;1.52;;;;;;;;;;4950726;28;20429;-60
2024/02/04 06:33:16;;;;;;;2.15;1.30;;;;;;;;;;4952802;28;20046;-60
2024/02/04 06:35:42;;;;;;;4.53;1.52;;;;;;;;;;4953243;28;20035;-60
2024/02/04 06:38:08;;;;;;;2.05;1.30;;;;;;;;;;4953299;28;20115;-60
2024/02/04 06:40:35;;;;;;;2.45;1.05;;;;;;;;;;4960628;28;20031;-61
2024/02/04 06:43:01;;;;;;;2.00;1.40;;;;;;;;;;4962492;28;20047;-61
2024/02/04 06:45:27;;;;;;;2.45;1.23;;;;;;;;;;4964469;28;20410;-62
2024/02/04 06:47:53;;;;;;;1.55;1.20;;;;;;;;;;4963405;28;20071;-61
2024/02/04 06:50:19;;;;;;;1.67;1.30;;;;;;;;;;4969558;28;20497;-61
2024/02/04 06:52:46;;;;;;;3.75;1.45;;;;;;;;;;4962423;28;20051;-61
2024/02/04 06:55:12;;;;;;;1.30;1.10;;;;;;;;;;4960268;28;20035;-60
2024/02/04 06:57:40;;;;;;;2.28;1.50;;;;;;;;;;4965705;28;20046;-61
2024/02/04 07:00:08;;;;;;;2.53;1.27;;;;;;;;;;4963472;28;20046;-63
2024/02/04 07:02:34;;;;;;;2.28;1.60;;;;;;;;;;4966980;28;20049;-60
2024/02/04 07:05:00;;;;;;;2.35;1.65;;;;;;;;;;4966824;28;20046;-60
2024/02/04 07:07:27;;;;;;;2.30;1.48;;;;;;;;;;4964142;28;21496;-62
2024/02/04 07:09:53;;;;;;;2.35;1.60;;;;;;;;;;4962268;28;20038;-61
2024/02/04 07:12:19;;;;;;;3.45;1.65;;;;;;;;;;4968929;28;20061;-62
2024/02/04 07:14:46;;;;;;;2.30;1.38;;;;;;;;;;4963824;28;20062;-61
2024/02/04 07:17:12;;;;;;;3.90;1.95;;;;;;;;;;4961545;28;20042;-60
2024/02/04 07:19:38;;;;;;;5.25;1.60;;;;;;;;;;4956714;28;20054;-61
2024/02/04 07:22:05;;;;;;;4.70;2.78;;;;;;;;;;4966258;28;20050;-64
2024/02/04 07:24:31;;;;;;;2.33;1.65;;;;;;;;;;4992625;23;20046;-66
2024/02/04 07:26:57;;;;;;;3.60;1.98;;;;;;;;;;4984297;28;20057;-66
2024/02/04 07:29:23;;;;;;;3.17;1.55;;;;;;;;;;4986447;28;20042;-65
2024/02/04 07:31:49;;;;;;;2.78;1.30;;;;;;;;;;4983587;28;20058;-66
2024/02/04 07:34:15;;;;;;;5.22;2.38;;;;;;;;;;4974186;28;20414;-65
2024/02/04 07:36:41;;;;;;;6.28;2.75;;;;;;;;;;4971468;28;20498;-65
2024/02/04 07:39:07;;;;;;;5.43;2.47;;;;;;;;;;4971614;28;20042;-65
2024/02/04 07:41:33;;;;;;;4.03;1.65;;;;;;;;;;4968243;28;20401;-65
2024/02/04 07:43:59;;;;;;;4.55;2.42;;;;;;;;;;4969525;28;20046;-66
2024/02/04 07:46:25;;;;;;;5.45;2.50;;;;;;;;;;4964748;28;20051;-66
2024/02/04 07:48:51;;;;;;;3.10;2.10;;;;;;;;;;4966653;28;20038;-66
2024/02/04 07:51:17;;;;;;;4.43;2.08;;;;;;;;;;4968878;28;20051;-66
2024/02/04 07:53:44;;;;;;;2.45;1.73;;;;;;;;;;4965118;28;20530;-65
2024/02/04 07:56:10;;;;;;;3.88;1.77;;;;;;;;;;4969719;28;20035;-65
2024/02/04 07:58:36;;;;;;;3.15;1.88;;;;;;;;;;4965028;28;20057;-65
2024/02/04 08:01:03;;;;;;;6.15;3.55;;;;;;;;;;4966031;28;20058;-66
2024/02/04 08:03:29;;;;;;;4.03;1.70;;;;;;;;;;4964505;28;20057;-65
2024/02/04 08:05:55;;;;;;;1.85;1.30;;;;;;;;;;4968154;28;20034;-64
2024/02/04 08:08:21;;;;;;;3.50;1.30;;;;;;;;;;4966288;28;20054;-65
2024/02/04 08:10:47;;;;;;;3.08;1.70;;;;;;;;;;4963581;28;20047;-65
2024/02/04 08:13:14;;;;;;;3.55;1.50;;;;;;;;;;4955697;28;20047;-67
2024/02/04 08:15:40;;;;;;;4.13;1.60;;;;;;;;;;4963537;28;20035;-65
2024/02/04 08:18:06;;;;;;;29.13;9.23;;;;;;;;;;4966406;28;20051;-65
2024/02/04 08:20:32;;;;;;;6.88;2.53;;;;;;;;;;4969342;28;20035;-65
2024/02/04 08:22:58;;;;;;;2.28;1.40;;;;;;;;;;4965417;28;20039;-65
2024/02/04 08:25:24;;;;;;;1.80;1.50;;;;;;;;;;4966258;28;20435;-65
2024/02/04 08:27:50;;;;;;;3.15;1.35;;;;;;;;;;4965901;28;20078;-65
2024/02/04 08:30:18;;;;;;;3.45;2.10;;;;;;;;;;4962240;28;20050;-65
2024/02/04 08:32:45;;;;;;;5.60;2.40;;;;;;;;;;4969119;28;20491;-65
2024/02/04 08:35:11;;;;;;;4.13;1.85;;;;;;;;;;4970616;28;20038;-65
2024/02/04 08:37:37;;;;;;;3.78;1.77;;;;;;;;;;4969234;28;20514;-66
2024/02/04 08:40:06;;;;;;;9.32;3.38;;;;;;;;;;4971409;28;20030;-66
2024/02/04 08:42:32;;;;;;;3.25;1.50;;;;;;;;;;4969206;28;20058;-64
2024/02/04 08:44:58;;;;;;;2.88;1.42;;;;;;;;;;4970320;28;20422;-65
2024/02/04 08:47:24;;;;;;;3.35;1.58;;;;;;;;;;4968574;28;20034;-66
2024/02/04 08:49:50;;;;;;;6.63;1.85;;;;;;;;;;4971972;28;20059;-66
2024/02/04 08:52:16;;;;;;;3.80;1.98;;;;;;;;;;4967609;28;20034;-65
2024/02/04 08:54:43;;;;;;;2.40;1.40;;;;;;;;;;4965897;28;20067;-66
2024/02/04 08:57:09;;;;;;;4.40;1.88;;;;;;;;;;4963967;28;20507;-66
2024/02/04 08:59:35;;;;;;;13.02;4.10;;;;;;;;;;4966502;28;20406;-65
2024/02/04 09:02:02;;;;;;;2.95;1.85;;;;;;;;;;4965101;28;20514;-65
2024/02/04 09:04:28;;;;;;;3.42;1.60;;;;;;;;;;4966515;28;20051;-66
2024/02/04 09:06:54;;;;;;;7.25;2.22;;;;;;;;;;4966372;28;20045;-66
2024/02/04 09:09:20;;;;;;;2.47;1.50;;;;;;;;;;4964406;28;20043;-65
2024/02/04 09:11:46;;;;;;;1.40;1.20;;;;;;;;;;4966587;28;20051;-66
2024/02/04 09:14:12;;;;;;;5.95;2.30;;;;;;;;;;4964144;28;20035;-65
2024/02/04 09:16:38;;;;;;;1.90;1.10;;;;;;;;;;4962880;28;20054;-66
2024/02/04 09:19:05;;;;;;;2.20;1.10;;;;;;;;;;4963028;28;20046;-65
2024/02/04 09:21:31;;;;;;;1.85;1.05;;;;;;;;;;4958492;28;20038;-66
2024/02/04 09:23:57;;;;;;;1.50;1.00;;;;;;;;;;4967955;28;20066;-67
2024/02/04 09:26:23;;;;;;;1.67;1.23;;;;;;;;;;4965875;28;20039;-66
2024/02/04 09:28:49;;;;;;;3.05;1.45;;;;;;;;;;4967436;28;20039;-66
2024/02/04 09:31:16;;;;;;;6.03;2.15;;;;;;;;;;4964187;28;20038;-66
2024/02/04 09:33:42;;;;;;;2.67;1.55;;;;;;;;;;4970127;28;20041;-67
2024/02/04 09:36:08;;;;;;;7.60;2.75;;;;;;;;;;4969046;28;20058;-65
2024/02/04 09:38:35;;;;;;;3.17;1.40;;;;;;;;;;4968701;28;20043;-66
2024/02/04 09:41:03;;;;;;;2.15;1.10;;;;;;;;;;4968551;28;21247;-66
2024/02/04 09:43:33;;;;;;;3.28;1.10;;;;;;;;;;4965308;28;20047;-65
2024/02/04 09:46:00;;;;;;;2.42;1.27;;;;;;;;;;4969074;28;20042;-66
2024/02/04 09:48:31;;;;;;;2.15;1.00;;;;;;;;;;4969866;28;20051;-66
2024/02/04 09:50:57;;;;;;;2.00;1.20;;;;;;;;;;4968995;28;20410;-67
2024/02/04 09:53:37;;;;;;;5.40;1.73;;;;;;;;;;4938590;28;20061;-67
2024/02/04 09:56:06;;;;;;;4.80;1.92;;;;;;;;;;4965914;28;20049;-67
2024/02/04 09:58:33;;;;;;;1.20;0.90;;;;;;;;;;4970579;28;20034;-66
2024/02/04 10:01:04;;;;;;;2.70;1.35;;;;;;;;;;4969881;28;20297;-65
2024/02/04 10:03:30;;;;;;;4.03;1.10;;;;;;;;;;4967134;28;20047;-65
2024/02/04 10:05:56;;;;;;;1.83;1.00;;;;;;;;;;4969019;28;20035;-65
2024/02/04 10:08:23;;;;;;;4.38;1.60;;;;;;;;;;4967727;28;20039;-67
2024/02/04 10:10:49;;;;;;;1.20;1.10;;;;;;;;;;4966164;28;20026;-66
2024/02/04 10:13:15;;;;;;;5.15;1.52;;;;;;;;;;4970656;28;20049;-66
2024/02/04 10:15:41;;;;;;;0.75;0.75;;;;;;;;;;4964152;28;20506;-67
2024/02/04 10:18:08;;;;;;;2.17;1.35;;;;;;;;;;4970512;28;20422;-66
2024/02/04 10:20:34;;;;;;;2.17;1.05;;;;;;;;;;4970031;28;20035;-68
2024/02/04 10:23:01;;;;;;;3.20;1.08;;;;;;;;;;4971052;28;20050;-67
2024/02/04 10:25:27;;;;;;;2.72;1.10;;;;;;;;;;4962981;28;20062;-67
2024/02/04 10:27:54;;;;;;;7.82;1.55;;;;;;;;;;4966801;28;20058;-67
2024/02/04 10:30:21;;;;;;;3.33;1.15;;;;;;;;;;4967924;28;20569;-67
2024/02/04 10:32:51;;;;;;;3.63;1.25;;;;;;;;;;4970487;28;20057;-67
2024/02/04 10:35:22;;;;;;;1.52;1.10;;;;;;;;;;4918873;28;20498;-67
2024/02/04 10:37:53;;;;;;;1.95;1.35;;;;;;;;;;4965961;28;20379;-68
2024/02/04 10:40:19;;;;;;;4.78;1.67;;;;;;;;;;4971745;28;20039;-67
2024/02/04 10:42:46;;;;;;;2.40;1.13;;;;;;;;;;4969238;28;20039;-68
2024/02/04 10:45:17;;;;;;;1.05;0.95;;;;;;;;;;4967616;28;20042;-68
2024/02/04 10:47:47;;;;;;;2.15;1.20;;;;;;;;;;4969455;28;20039;-67
2024/02/04 10:50:15;;;;;;;2.47;0.80;;;;;;;;;;4970206;28;20038;-66
2024/02/04 10:52:46;;;;;;;0.90;0.70;;;;;;;;;;4971392;28;20474;-66
2024/02/04 10:55:14;;;;;;;2.20;0.93;;;;;;;;;;4970269;28;20391;-66
2024/02/04 10:57:40;;;;;;;2.88;1.27;;;;;;;;;;4968362;28;20030;-67
2024/02/04 11:00:08;;;;;;;2.30;1.27;;;;;;;;;;4972835;28;20055;-68
2024/02/04 11:02:35;;;;;;;1.20;0.80;;;;;;;;;;4969544;28;20066;-67
2024/02/04 11:05:04;;;;;;;2.55;1.13;;;;;;;;;;4969394;28;20202;-67
2024/02/04 11:07:34;;;;;;;2.90;0.80;;;;;;;;;;4969658;28;20418;-67
2024/02/04 11:10:01;;;;;;;4.10;0.98;;;;;;;;;;4972492;28;20046;-67
2024/02/04 11:12:30;;;;;;;1.85;0.90;;;;;;;;;;4964426;28;20049;-67
2024/02/04 11:15:01;;;;;;;2.40;0.68;;;;;;;;;;4965283;28;20054;-67
2024/02/04 11:17:39;;;;;;;2.67;1.20;;;;;;;;;;4966469;28;20035;-67
2024/02/04 11:20:24;;;;;;;1.63;0.82;;;;;;;;;;4967918;28;21376;-67
2024/02/04 11:23:12;;;;;;;1.20;0.90;;;;;;;;;;4965472;28;20035;-66
2024/02/04 11:25:58;;;;;;;1.77;0.85;;;;;;;;;;4962015;28;20051;-66
2024/02/04 11:28:26;;;;;;;1.75;0.80;;;;;;;;;;4970341;28;20051;-67
2024/02/04 11:30:52;;;;;;;0.93;0.55;;;;;;;;;;4967992;28;20050;-67
2024/02/04 11:33:20;;;;;;;1.67;0.70;;;;;;;;;;4969432;28;20418;-67
2024/02/04 11:35:47;;;;;;;1.02;0.80;;;;;;;;;;4966820;28;20110;-66
2024/02/04 11:38:17;;;;;;;2.53;0.90;;;;;;;;;;4967601;28;20038;-66
2024/02/04 11:40:46;;;;;;;0.75;0.70;;;;;;;;;;4967621;28;20059;-66
2024/02/04 11:43:14;;;;;;;6.63;1.10;;;;;;;;;;4967451;28;20106;-68
2024/02/04 11:45:45;;;;;;;3.10;0.90;;;;;;;;;;4968085;28;20039;-68
2024/02/04 11:48:11;;;;;;;38.42;21.92;;;;;;;;;;4969954;28;20050;-68
2024/02/04 11:50:38;;;;;;;8.90;8.00;;;;;;;;;;4966537;28;20035;-66
2024/02/04 11:53:14;;;;;;;9.82;8.93;;;;;;;;;;4966719;28;20042;-70
2024/02/04 11:55:41;;;;;;;79.90;71.18;;;;;;;;;;4964155;28;20027;-70
2024/02/04 11:58:09;;;;;;;11.18;6.30;;;;;;;;;;4967986;28;20541;-71
2024/02/04 12:00:36;;;;;;;29.63;14.85;;;;;;;;;;4969207;28;20047;-69
2024/02/04 12:03:03;;;;;;;4.15;1.65;;;;;;;;;;4965099;28;20046;-69
2024/02/04 12:05:34;;;;;;;2.17;0.93;;;;;;;;;;4966882;28;20039;-68
2024/02/04 12:08:05;;;;;;;1.52;0.77;;;;;;;;;;4964820;28;20058;-67
2024/02/04 12:10:33;;;;;;;0.98;0.47;;;;;;;;;;4962854;28;20034;-67
2024/02/04 12:13:01;;;;;;;1.70;1.00;;;;;;;;;;4962637;28;20042;-67
2024/02/04 12:15:28;;;;;;;2.42;0.80;;;;;;;;;;4957357;28;20042;-67
2024/02/04 12:17:55;;;;;;;1.55;1.02;;;;;;;;;;4967869;28;20055;-66
2024/02/04 12:20:21;;;;;;;1.67;1.20;;;;;;;;;;4969127;28;20038;-66
2024/02/04 12:22:48;;;;;;;1.00;0.65;;;;;;;;;;4967441;28;20061;-67
2024/02/04 12:25:16;;;;;;;0.95;0.63;;;;;;;;;;4963341;28;20046;-67
2024/02/04 12:27:43;;;;;;;2.30;1.20;;;;;;;;;;4968137;28;20049;-66
2024/02/04 12:30:09;;;;;;;1.65;1.13;;;;;;;;;;4961967;28;20040;-70
2024/02/04 12:32:36;;;;;;;1.13;0.85;;;;;;;;;;4953777;28;20039;-66
2024/02/04 12:35:03;;;;;;;4.25;3.50;;;;;;;;;;4964555;28;20062;-70
2024/02/04 12:37:30;;;;;;;79.72;32.13;;;;;;;;;;4965348;28;20054;-66
2024/02/04 12:39:56;;;;;;;6.22;2.22;;;;;;;;;;4967349;28;20062;-66
2024/02/04 12:42:22;;;;;;;0.88;0.77;;;;;;;;;;4963429;28;20049;-66
2024/02/04 12:44:49;;;;;;;0.98;0.70;;;;;;;;;;4966416;28;20039;-66
2024/02/04 12:47:19;;;;;;;1.00;0.80;;;;;;;;;;4965212;28;20627;-67
2024/02/04 12:49:45;;;;;;;0.80;0.70;;;;;;;;;;4964387;28;20410;-66
2024/02/04 12:52:11;;;;;;;1.20;0.60;;;;;;;;;;4962734;28;20041;-67
2024/02/04 12:54:45;;;;;;;0.60;0.50;;;;;;;;;;4962170;28;20062;-67
2024/02/04 12:57:23;;;;;;;2.25;0.68;;;;;;;;;;4967690;28;20039;-68
2024/02/04 12:59:49;;;;;;;1.40;0.70;;;;;;;;;;4969540;28;20374;-67
2024/02/04 13:02:15;;;;;;;1.63;0.88;;;;;;;;;;4966397;28;20043;-66
2024/02/04 13:04:42;;;;;;;1.15;0.82;;;;;;;;;;4960825;28;20042;-65
2024/02/04 13:07:09;;;;;;;1.02;0.68;;;;;;;;;;4968683;28;20042;-66
2024/02/04 13:09:36;;;;;;;2.15;0.93;;;;;;;;;;4969792;28;20043;-65
2024/02/04 13:12:04;;;;;;;0.98;0.60;;;;;;;;;;4959343;28;20043;-65
2024/02/04 13:14:30;;;;;;;0.95;0.60;;;;;;;;;;4965159;28;20038;-65
2024/02/04 13:16:56;;;;;;;1.23;0.57;;;;;;;;;;4963901;28;20042;-65
2024/02/04 13:19:22;;;;;;;1.85;0.70;;;;;;;;;;4969710;28;20074;-65
2024/02/04 13:21:48;;;;;;;1.40;0.68;;;;;;;;;;4969056;28;20444;-67
2024/02/04 13:24:14;;;;;;;0.85;0.50;;;;;;;;;;4970149;28;20046;-66
2024/02/04 13:26:40;;;;;;;2.40;0.50;;;;;;;;;;4971205;28;20058;-65
2024/02/04 13:29:07;;;;;;;0.60;0.40;;;;;;;;;;4973264;28;20050;-66
2024/02/04 13:31:33;;;;;;;1.63;0.85;;;;;;;;;;4972739;28;20031;-66
2024/02/04 13:34:03;;;;;;;3.33;0.50;;;;;;;;;;4972355;28;20059;-66
2024/02/04 13:36:30;;;;;;;1.45;0.75;;;;;;;;;;4972216;28;20039;-65
2024/02/04 13:38:56;;;;;;;1.58;0.80;;;;;;;;;;4971845;28;20465;-65
2024/02/04 13:41:23;;;;;;;2.85;1.40;;;;;;;;;;4971642;28;20050;-65
2024/02/04 13:43:50;;;;;;;1.25;0.70;;;;;;;;;;4967090;28;20037;-66
2024/02/04 13:46:16;;;;;;;0.88;0.80;;;;;;;;;;4969607;28;20043;-65
2024/02/04 13:48:42;;;;;;;1.58;1.00;;;;;;;;;;4967930;28;20038;-65
2024/02/04 13:51:08;;;;;;;0.95;0.70;;;;;;;;;;4967919;28;20047;-66
2024/02/04 13:53:35;;;;;;;1.67;0.70;;;;;;;;;;4969161;28;20114;-65
2024/02/04 13:56:01;;;;;;;1.17;0.60;;;;;;;;;;4969797;28;20038;-65
2024/02/04 13:58:28;;;;;;;0.93;0.50;;;;;;;;;;4970862;28;20026;-65
2024/02/04 14:00:54;;;;;;;0.70;0.52;;;;;;;;;;4970465;28;20513;-65
2024/02/04 14:03:20;;;;;;;1.08;0.60;;;;;;;;;;4971079;28;20035;-65
2024/02/04 14:05:46;;;;;;;0.43;0.40;;;;;;;;;;4968757;28;20034;-65
2024/02/04 14:08:12;;;;;;;1.08;0.43;;;;;;;;;;4964483;28;20062;-65
2024/02/04 14:10:39;;;;;;;0.32;0.30;;;;;;;;;;4971487;28;20054;-65
2024/02/04 14:13:06;;;;;;;0.65;0.40;;;;;;;;;;4966221;28;20050;-65
2024/02/04 14:15:32;;;;;;;3.97;1.48;;;;;;;;;;4964853;28;20123;-65
2024/02/04 14:17:59;;;;;;;1.13;0.65;;;;;;;;;;4965849;28;20169;-65
2024/02/04 14:20:26;;;;;;;1.70;1.10;;;;;;;;;;4969175;28;20035;-65
2024/02/04 14:22:52;;;;;;;1.40;0.90;;;;;;;;;;4968859;28;20054;-65
2024/02/04 14:25:19;;;;;;;1.08;0.50;;;;;;;;;;4966272;28;20074;-64
2024/02/04 14:27:45;;;;;;;2.30;1.50;;;;;;;;;;4967298;28;20042;-65
2024/02/04 14:30:12;;;;;;;1.33;0.90;;;;;;;;;;4971035;28;20391;-65
2024/02/04 14:32:38;;;;;;;3.42;1.83;;;;;;;;;;4969684;28;20055;-64
2024/02/04 14:35:04;;;;;;;1.58;0.75;;;;;;;;;;4968215;28;20051;-66
2024/02/04 14:37:35;;;;;;;2.60;0.60;;;;;;;;;;4960304;28;20364;-64
2024/02/04 14:40:03;;;;;;;0.93;0.60;;;;;;;;;;4970217;28;20041;-65
2024/02/04 14:42:29;;;;;;;2.95;1.40;;;;;;;;;;4970614;28;20042;-66